Terminal Aerodrome Forecast
Issued by NWS Tuscon, AZ

Home | Current Version | Previous Version | Text Only | Print | Product List | Glossary On
Versions: 1 2 3 4 5 6 7 8 9 10 11 12 13 14
000
FTUS45 KTWC 251133
TAFTUS
TAF
KTUS 251133Z 2512/2612 14007KT P6SM FEW120
     FM252000 09010KT P6SM FEW090 BKN120
     FM260400 12015G22KT P6SM SCT080 BKN110
     FM261100 11020G30KT P6SM VCSH BKN070 OVC100=

USA.gov is the U.S. government's official web portal to all federal, state and local government web resources and services.